Time;durP1;ratioP1;P1;durP2;ratioP2;P2;SDS_P1;SDS_P2;PMS_P1;PMS_P2;Temp;Humidity;BMP_temperature;BMP_pressure;BME280_temperature;BME280_humidity;BME280_pressure;Samples;Min_cycle;Max_cycle;Signal;HPM_P1;HPM_P2
2022/08/10 00:00:25;;;;;;;1.40;1.00;;;19.40;91.60;;;;;;5030145;28;20482;-92
2022/08/10 00:02:54;;;;;;;1.30;0.88;;;19.40;91.70;;;;;;5040702;28;20091;-90
2022/08/10 00:05:20;;;;;;;2.80;1.05;;;19.30;91.70;;;;;;5033023;28;20149;-92
2022/08/10 00:07:54;;;;;;;1.48;0.77;;;19.30;91.80;;;;;;5053662;28;20037;-91
2022/08/10 00:10:23;;;;;;;1.58;0.80;;;19.30;91.80;;;;;;5047488;28;20184;-90
2022/08/10 00:12:56;;;;;;;0.80;0.70;;;19.30;91.90;;;;;;5029206;28;20521;-92
2022/08/10 00:15:23;;;;;;;1.08;0.70;;;19.30;92.00;;;;;;5028588;28;20435;-92
2022/08/10 00:17:51;;;;;;;0.82;0.70;;;19.20;92.00;;;;;;5040779;28;20045;-90
2022/08/10 00:20:20;;;;;;;2.15;0.80;;;19.20;92.10;;;;;;5022096;28;20033;-91
2022/08/10 00:22:48;;;;;;;1.60;0.90;;;19.20;92.10;;;;;;5043911;28;20450;-92
2022/08/10 00:25:42;;;;;;;0.85;0.68;;;19.10;92.20;;;;;;5039759;28;20044;-92
2022/08/10 00:28:37;;;;;;;;;;;;;;;;;;;;;
2022/08/10 00:31:21;;;;;;;0.85;0.70;;;19.10;92.20;;;;;;5044701;28;20161;-92
2022/08/10 00:37:24;;;;;;;0.73;0.63;;;19.10;92.40;;;;;;5022948;28;20034;-92
2022/08/10 00:40:37;;;;;;;1.42;0.70;;;19.00;92.50;;;;;;5028654;28;20037;-92
2022/08/10 00:43:24;;;;;;;1.25;0.73;;;19.00;92.50;;;;;;5040387;28;20080;-92
2022/08/10 00:46:19;;;;;;;1.38;0.77;;;18.90;92.60;;;;;;5031176;28;20061;-92
2022/08/10 00:48:50;;;;;;;0.98;0.68;;;18.90;92.70;;;;;;5046506;28;20030;-92
2022/08/10 00:51:18;;;;;;;0.70;0.60;;;18.90;92.80;;;;;;5034204;28;20529;-92
2022/08/10 00:53:50;;;;;;;1.30;0.70;;;18.90;92.80;;;;;;5045305;28;20037;-91
2022/08/10 00:56:44;;;;;;;0.93;0.60;;;18.90;92.90;;;;;;5039750;28;20029;-91
2022/08/10 01:02:37;;;;;;;1.33;0.60;;;18.90;93.10;;;;;;5038663;28;20026;-92
2022/08/10 01:05:31;;;;;;;1.25;0.60;;;18.80;93.10;;;;;;5041603;28;20144;-91
2022/08/10 01:08:41;;;;;;;0.90;0.55;;;18.80;93.20;;;;;;5042095;28;20502;-91
2022/08/10 01:11:44;;;;;;;1.08;0.80;;;18.80;93.20;;;;;;5043143;28;20030;-92
2022/08/10 01:14:56;;;;;;;0.93;0.60;;;18.80;93.30;;;;;;5006902;28;20029;-92
2022/08/10 01:21:14;;;;;;;1.67;0.50;;;18.70;93.50;;;;;;5033874;28;20030;-92
2022/08/10 01:24:27;;;;;;;0.60;0.60;;;18.70;93.80;;;;;;5022481;28;20049;-90
2022/08/10 01:27:33;;;;;;;1.33;0.70;;;18.60;93.70;;;;;;5019907;28;20045;-92
2022/08/10 01:30:18;;;;;;;2.28;0.80;;;18.60;93.80;;;;;;5042865;28;20037;-92
2022/08/10 01:33:06;;;;;;;1.35;0.55;;;18.50;93.80;;;;;;5016704;28;20041;-92
2022/08/10 01:35:57;;;;;;;1.00;0.60;;;18.40;93.90;;;;;;5042751;28;20088;-93
2022/08/10 01:38:45;;;;;;;1.08;0.70;;;18.50;94.00;;;;;;5038682;28;20026;-93
2022/08/10 01:41:42;;;;;;;;;;;;;;;;;;;;;
2022/08/10 01:44:37;;;;;;;0.60;0.60;;;18.30;94.20;;;;;;5044348;28;20108;-92
2022/08/10 01:50:06;;;;;;;0.70;0.60;;;18.20;94.40;;;;;;5042534;28;20108;-92
2022/08/10 01:52:54;;;;;;;1.00;0.60;;;18.20;94.40;;;;;;5039416;28;20056;-92
2022/08/10 01:55:23;;;;;;;0.88;0.63;;;18.20;94.50;;;;;;5024393;28;20121;-92
2022/08/10 01:58:01;;;;;;;1.00;0.70;;;18.10;94.60;;;;;;5040417;28;20041;-91
2022/08/10 02:00:32;;;;;;;0.90;0.60;;;18.10;94.70;;;;;;5040550;28;20124;-91
2022/08/10 02:03:03;;;;;;;1.75;0.70;;;18.10;94.80;;;;;;5040826;28;20069;-92
2022/08/10 02:05:31;;;;;;;0.60;0.60;;;18.10;94.90;;;;;;5041820;28;20073;-91
2022/08/10 02:07:59;;;;;;;1.13;0.70;;;18.10;95.00;;;;;;5039569;28;20042;-91
2022/08/10 02:10:26;;;;;;;1.20;0.65;;;18.00;95.00;;;;;;5038979;28;20044;-91
2022/08/10 02:12:55;;;;;;;2.72;0.80;;;18.00;95.10;;;;;;5022955;28;20045;-91
2022/08/10 02:15:23;;;;;;;1.90;0.70;;;18.00;95.30;;;;;;5021668;28;20088;-92
2022/08/10 02:17:52;;;;;;;1.27;0.80;;;17.90;95.40;;;;;;5020982;28;20025;-92
2022/08/10 02:20:22;;;;;;;1.85;0.80;;;17.90;95.50;;;;;;5020507;28;20030;-91
2022/08/10 02:22:52;;;;;;;1.52;0.95;;;17.90;95.60;;;;;;5019870;28;20111;-91
2022/08/10 02:25:26;;;;;;;0.70;0.68;;;17.80;95.70;;;;;;5022830;28;20037;-89
2022/08/10 02:27:53;;;;;;;1.00;0.85;;;17.80;95.70;;;;;;5043721;28;20029;-92
2022/08/10 02:30:21;;;;;;;1.20;0.73;;;17.80;95.80;;;;;;5038865;28;20029;-90
2022/08/10 02:32:48;;;;;;;1.52;0.85;;;17.70;96.10;;;;;;5042304;28;20029;-89
2022/08/10 02:35:16;;;;;;;2.50;0.82;;;17.70;96.00;;;;;;5040269;28;20043;-92
2022/08/10 02:37:47;;;;;;;2.08;0.90;;;17.70;96.10;;;;;;5038326;28;20033;-92
2022/08/10 02:40:16;;;;;;;3.67;0.70;;;17.70;96.20;;;;;;5037006;28;20040;-92
2022/08/10 02:43:00;;;;;;;1.90;0.90;;;17.70;96.20;;;;;;5037030;28;20057;-91
2022/08/10 02:45:40;;;;;;;0.80;0.63;;;17.70;96.30;;;;;;5035476;28;20068;-92
2022/08/10 02:48:12;;;;;;;1.48;0.90;;;17.70;96.50;;;;;;5035129;28;20059;-92
2022/08/10 02:50:40;;;;;;;1.33;0.90;;;17.60;96.50;;;;;;5025508;28;20056;-92
2022/08/10 02:53:26;;;;;;;1.98;1.00;;;17.60;96.70;;;;;;5019302;28;20509;-92
2022/08/10 02:56:36;;;;;;;1.30;0.90;;;17.60;96.80;;;;;;5023344;28;20064;-93
2022/08/10 02:59:38;;;;;;;1.05;0.95;;;17.50;96.90;;;;;;5022156;28;20034;-91
2022/08/10 03:02:17;;;;;;;1.15;0.90;;;17.50;97.00;;;;;;5036312;28;20053;-92
2022/08/10 03:04:52;;;;;;;1.30;0.90;;;17.50;97.10;;;;;;5018095;28;20056;-91
2022/08/10 03:07:21;;;;;;;1.23;0.98;;;17.50;97.10;;;;;;5007927;28;20061;-91
2022/08/10 03:09:48;;;;;;;1.63;1.00;;;17.40;97.20;;;;;;5033372;28;20132;-91
2022/08/10 03:12:23;;;;;;;2.03;1.10;;;17.30;97.30;;;;;;5016991;28;20037;-92
2022/08/10 03:14:53;;;;;;;1.63;1.02;;;17.40;97.40;;;;;;5034456;28;20216;-91
2022/08/10 03:17:22;;;;;;;1.00;0.90;;;17.40;97.50;;;;;;5033973;28;20060;-91
2022/08/10 03:19:50;;;;;;;1.80;1.20;;;17.30;97.60;;;;;;5017841;28;20033;-91
2022/08/10 03:22:17;;;;;;;2.47;1.23;;;17.30;97.80;;;;;;5017409;28;20124;-91
2022/08/10 03:24:44;;;;;;;1.90;1.08;;;17.30;97.90;;;;;;5033659;28;20121;-91
2022/08/10 03:27:19;;;;;;;2.35;1.17;;;17.30;98.00;;;;;;5017152;28;20080;-92
2022/08/10 03:29:59;;;;;;;1.73;1.17;;;17.30;98.10;;;;;;5017365;28;20033;-92
2022/08/10 03:37:03;;;;;;;;;;;;;;;;;;;;;
2022/08/10 03:39:47;;;;;;;1.83;1.00;;;17.10;98.40;;;;;;5030010;28;20049;-93
2022/08/10 03:46:00;;;;;;;1.92;1.20;;;17.10;98.70;;;;;;4977320;28;20517;-91
2022/08/10 03:48:38;;;;;;;2.03;1.10;;;17.00;98.80;;;;;;5011708;28;20041;-92
2022/08/10 03:51:13;;;;;;;2.25;1.50;;;17.00;99.00;;;;;;5016315;28;20034;-92
2022/08/10 03:53:42;;;;;;;4.05;1.10;;;17.00;99.10;;;;;;5016076;28;20109;-91
2022/08/10 03:56:17;;;;;;;2.45;1.30;;;16.90;99.20;;;;;;5017967;28;20029;-91
2022/08/10 03:58:52;;;;;;;1.73;1.17;;;17.00;99.40;;;;;;5017598;28;20042;-91
2022/08/10 04:01:22;;;;;;;2.28;1.10;;;16.90;99.50;;;;;;5036033;28;20037;-91
2022/08/10 04:03:50;;;;;;;2.97;1.20;;;16.90;99.60;;;;;;5017483;28;20487;-92
2022/08/10 04:06:17;;;;;;;2.30;1.27;;;16.90;99.80;;;;;;5019322;28;20033;-90
2022/08/10 04:08:43;;;;;;;1.77;1.23;;;16.90;99.90;;;;;;5017875;28;20037;-88
2022/08/10 04:11:10;;;;;;;1.70;1.20;;;16.90;99.90;;;;;;5032713;28;20060;-90
2022/08/10 04:13:38;;;;;;;2.03;1.30;;;16.90;99.90;;;;;;5027065;28;20040;-91
2022/08/10 04:16:05;;;;;;;2.75;1.52;;;16.80;99.90;;;;;;5035256;28;20082;-91
2022/08/10 04:18:35;;;;;;;3.22;1.60;;;16.80;99.90;;;;;;5018626;28;20036;-91
2022/08/10 04:21:14;;;;;;;2.17;1.25;;;16.80;99.90;;;;;;5035081;28;20037;-91
2022/08/10 04:23:48;;;;;;;2.45;1.73;;;16.80;99.90;;;;;;5016304;28;20076;-93
2022/08/10 04:26:22;;;;;;;2.40;1.23;;;16.80;99.90;;;;;;5035253;28;20036;-91
2022/08/10 04:28:49;;;;;;;1.88;1.40;;;16.80;99.90;;;;;;5018758;28;20120;-92
2022/08/10 04:31:16;;;;;;;2.22;1.33;;;16.70;99.90;;;;;;5018955;28;20062;-90
2022/08/10 04:33:46;;;;;;;2.20;1.50;;;16.70;99.90;;;;;;5019304;28;20136;-90
2022/08/10 04:36:15;;;;;;;3.13;1.27;;;16.70;99.90;;;;;;5019735;28;20026;-90
2022/08/10 04:38:45;;;;;;;2.60;1.40;;;16.70;99.90;;;;;;5021424;28;20037;-92
2022/08/10 04:41:44;;;;;;;3.78;1.45;;;16.70;99.90;;;;;;5021907;28;20049;-91
2022/08/10 04:47:46;;;;;;;1.38;1.27;;;16.60;99.90;;;;;;5018341;28;20097;-92
2022/08/10 04:50:54;;;;;;;;;;;;;;;;;;;;;
